createdAt,value
2019-05-21T00:00:58.232Z,16.26
2019-05-21T00:01:58.239Z,16.30
2019-05-21T00:02:58.219Z,16.35
2019-05-21T00:03:58.236Z,16.33
2019-05-21T00:04:58.228Z,16.34
2019-05-21T00:05:58.220Z,16.27
2019-05-21T00:06:58.221Z,16.22
2019-05-21T00:07:58.215Z,16.23
2019-05-21T00:08:58.212Z,16.27
2019-05-21T00:09:58.220Z,16.22
2019-05-21T00:10:58.221Z,16.20
2019-05-21T00:11:58.208Z,16.35
2019-05-21T00:12:58.201Z,16.25
2019-05-21T00:13:58.205Z,16.16
2019-05-21T00:14:58.202Z,16.18
2019-05-21T00:15:58.200Z,16.25
2019-05-21T00:16:58.196Z,16.20
2019-05-21T00:17:58.193Z,16.16
2019-05-21T00:18:58.190Z,16.30
2019-05-21T00:19:58.253Z,16.22
2019-05-21T00:20:58.183Z,16.20
2019-05-21T00:21:58.199Z,16.14
2019-05-21T00:22:58.199Z,16.25
2019-05-21T00:23:58.177Z,16.30
2019-05-21T00:24:58.210Z,16.12
2019-05-21T00:25:58.172Z,16.15
2019-05-21T00:26:58.176Z,16.23
2019-05-21T00:27:58.170Z,16.20
2019-05-21T00:28:58.163Z,16.22
2019-05-21T00:29:58.215Z,16.23
2019-05-21T00:30:58.164Z,16.16
2019-05-21T00:31:58.171Z,16.03
2019-05-21T00:32:58.172Z,16.12
2019-05-21T00:33:58.161Z,16.09
2019-05-21T00:34:58.147Z,16.06
2019-05-21T00:35:58.148Z,15.93
2019-05-21T00:36:58.355Z,15.97
2019-05-21T00:37:58.142Z,15.93
2019-05-21T00:38:58.134Z,15.99
2019-05-21T00:39:58.140Z,16.07
2019-05-21T00:40:58.150Z,16.09
2019-05-21T00:41:58.136Z,16.01
2019-05-21T00:42:58.133Z,16.07
2019-05-21T00:43:58.129Z,15.99
2019-05-21T00:44:58.126Z,15.94
2019-05-21T00:45:58.120Z,15.92
2019-05-21T00:46:58.135Z,15.93
2019-05-21T00:47:58.123Z,15.99
2019-05-21T00:48:58.110Z,15.93
2019-05-21T00:49:58.113Z,15.97
2019-05-21T00:50:58.127Z,15.93
2019-05-21T00:52:06.847Z,15.86
2019-05-21T00:52:58.114Z,15.97
2019-05-21T00:53:58.139Z,15.89
2019-05-21T00:54:58.104Z,15.89
2019-05-21T00:55:58.099Z,15.94
2019-05-21T00:56:58.097Z,15.94
2019-05-21T00:57:58.095Z,15.96
2019-05-21T00:58:58.081Z,15.88
2019-05-21T00:59:58.087Z,15.92
2019-05-21T01:00:58.079Z,15.92
2019-05-21T01:01:58.080Z,15.88
2019-05-21T01:02:58.079Z,15.82
2019-05-21T01:03:58.080Z,15.85
2019-05-21T01:05:00.862Z,15.86
2019-05-21T01:05:58.073Z,15.89
2019-05-21T01:06:58.067Z,15.84
2019-05-21T01:07:58.066Z,15.79
2019-05-21T01:08:58.130Z,15.74
2019-05-21T01:09:58.062Z,15.78
2019-05-21T01:10:58.060Z,15.81
2019-05-21T01:11:58.050Z,15.76
2019-05-21T01:12:58.049Z,15.82
2019-05-21T01:13:58.070Z,15.81
2019-05-21T01:14:58.037Z,15.79
2019-05-21T01:15:58.045Z,15.84
2019-05-21T01:16:58.061Z,15.88
2019-05-21T01:17:58.042Z,15.74
2019-05-21T01:18:58.028Z,15.63
2019-05-21T01:19:58.021Z,15.78
2019-05-21T01:20:58.027Z,15.74
2019-05-21T01:21:58.021Z,15.86
2019-05-21T01:22:58.031Z,15.75
2019-05-21T01:23:58.011Z,15.78
2019-05-21T01:24:58.009Z,15.72
2019-05-21T01:25:58.012Z,15.75
2019-05-21T01:26:58.009Z,15.74
2019-05-21T01:27:58.007Z,15.74
2019-05-21T01:28:57.999Z,15.84
2019-05-21T01:29:58.001Z,15.88
2019-05-21T01:30:57.998Z,15.76
2019-05-21T01:31:57.997Z,15.81
2019-05-21T01:32:58.012Z,15.68
2019-05-21T01:33:57.989Z,15.74
2019-05-21T01:34:57.990Z,15.68
2019-05-21T01:35:57.980Z,15.70
2019-05-21T01:36:57.983Z,15.63
2019-05-21T01:37:57.981Z,15.74
2019-05-21T01:38:58.000Z,15.74
2019-05-21T01:39:57.989Z,15.70
2019-05-21T01:40:57.971Z,15.67
2019-05-21T01:41:57.963Z,15.67
2019-05-21T01:42:57.957Z,15.72
2019-05-21T01:43:57.969Z,15.57
2019-05-21T01:44:57.956Z,15.60
2019-05-21T01:45:57.964Z,15.64
2019-05-21T01:46:57.948Z,15.59
2019-05-21T01:47:57.961Z,15.56
2019-05-21T01:48:57.953Z,15.60
2019-05-21T01:49:57.942Z,15.52
2019-05-21T01:50:57.938Z,15.61
2019-05-21T01:51:57.931Z,15.63
2019-05-21T01:52:57.958Z,15.59
2019-05-21T01:53:57.929Z,15.59
2019-05-21T01:54:57.929Z,15.63
2019-05-21T01:55:57.931Z,15.60
2019-05-21T01:56:57.922Z,15.52
2019-05-21T01:57:57.918Z,15.57
2019-05-21T01:58:57.979Z,15.46
2019-05-21T01:59:57.917Z,15.57
2019-05-21T02:00:57.909Z,15.57
2019-05-21T02:01:57.911Z,15.57
2019-05-21T02:02:57.895Z,15.45
2019-05-21T02:03:57.899Z,15.49
2019-05-21T02:04:57.894Z,15.57
2019-05-21T02:05:57.894Z,15.49
2019-05-21T02:06:57.892Z,15.60
2019-05-21T02:07:57.889Z,15.42
2019-05-21T02:08:57.881Z,15.59
2019-05-21T02:09:57.905Z,15.51
2019-05-21T02:10:57.881Z,15.38
2019-05-21T02:11:57.881Z,15.45
2019-05-21T02:12:57.884Z,15.42
2019-05-21T02:13:57.867Z,15.48
2019-05-21T02:14:57.867Z,15.39
2019-05-21T02:15:57.861Z,15.28
2019-05-21T02:16:57.875Z,15.31
2019-05-21T02:17:57.860Z,15.39
2019-05-21T02:18:57.848Z,15.27
2019-05-21T02:19:57.850Z,15.27
2019-05-21T02:20:57.845Z,15.41
2019-05-21T02:21:57.855Z,15.21
2019-05-21T02:22:57.838Z,15.31
2019-05-21T02:23:57.841Z,15.41
2019-05-21T02:24:57.832Z,15.38
2019-05-21T02:25:57.831Z,15.38
2019-05-21T02:26:57.823Z,15.39
2019-05-21T02:27:57.823Z,15.39
2019-05-21T02:28:57.821Z,15.46
2019-05-21T02:29:57.820Z,15.36
2019-05-21T02:30:57.828Z,15.36
2019-05-21T02:31:57.815Z,15.28
2019-05-21T02:32:57.813Z,15.30
2019-05-21T02:33:57.830Z,15.35
2019-05-21T02:34:57.808Z,15.38
2019-05-21T02:35:57.806Z,15.13
2019-05-21T02:36:57.804Z,15.24
2019-05-21T02:37:57.826Z,15.41
2019-05-21T02:38:57.811Z,15.41
2019-05-21T02:39:57.794Z,15.31
2019-05-21T02:40:57.804Z,15.35
2019-05-21T02:41:57.784Z,15.31
2019-05-21T02:42:57.777Z,15.28
2019-05-21T02:43:57.774Z,15.26
2019-05-21T02:44:57.820Z,15.41
2019-05-21T02:45:57.783Z,15.21
2019-05-21T02:46:57.773Z,15.23
2019-05-21T02:47:57.765Z,15.26
2019-05-21T02:48:57.756Z,15.28
2019-05-21T02:49:57.757Z,15.11
2019-05-21T02:50:57.793Z,15.02
2019-05-21T02:51:57.752Z,15.17
2019-05-21T02:52:57.748Z,15.05
2019-05-21T02:53:57.746Z,15.03
2019-05-21T02:54:57.751Z,15.03
2019-05-21T02:55:57.740Z,15.13
2019-05-21T02:56:57.764Z,15.23
2019-05-21T02:57:57.735Z,15.20
2019-05-21T02:58:57.727Z,15.17
2019-05-21T02:59:57.741Z,15.21
2019-05-21T03:00:57.727Z,15.31
2019-05-21T03:01:57.725Z,15.33
2019-05-21T03:02:57.715Z,15.35
2019-05-21T03:03:57.710Z,15.24
2019-05-21T03:04:57.715Z,15.36
2019-05-21T03:06:12.427Z,15.30
2019-05-21T03:06:57.709Z,15.28
2019-05-21T03:07:57.701Z,15.17
2019-05-21T03:08:57.694Z,15.01
2019-05-21T03:09:57.690Z,15.21
2019-05-21T03:10:57.699Z,15.21
2019-05-21T03:11:57.694Z,15.05
2019-05-21T03:12:57.700Z,15.17
2019-05-21T03:13:57.695Z,15.20
2019-05-21T03:14:57.681Z,15.19
2019-05-21T03:15:57.706Z,15.09
2019-05-21T03:16:57.677Z,15.11
2019-05-21T03:17:57.678Z,15.20
2019-05-21T03:18:57.669Z,15.21
2019-05-21T03:19:57.669Z,15.09
2019-05-21T03:20:57.662Z,15.19
2019-05-21T03:21:57.662Z,15.20
2019-05-21T03:22:57.669Z,15.23
2019-05-21T03:23:57.658Z,15.20
2019-05-21T03:25:02.130Z,15.23
2019-05-21T03:25:57.644Z,15.21
2019-05-21T03:26:57.646Z,15.11
2019-05-21T03:27:57.646Z,15.23
2019-05-21T03:28:57.646Z,15.23
2019-05-21T03:29:57.634Z,15.24
2019-05-21T03:30:57.644Z,15.20
2019-05-21T03:31:57.642Z,15.06
2019-05-21T03:32:57.659Z,15.12
2019-05-21T03:33:57.625Z,15.21
2019-05-21T03:34:57.620Z,15.11
2019-05-21T03:35:57.619Z,15.12
2019-05-21T03:36:57.629Z,15.12
2019-05-21T03:37:57.616Z,15.06
2019-05-21T03:38:57.618Z,15.13
2019-05-21T03:39:57.609Z,15.06
2019-05-21T03:40:57.600Z,15.03
2019-05-21T03:41:57.608Z,15.05
2019-05-21T03:42:57.615Z,15.01
2019-05-21T03:43:57.610Z,15.06
2019-05-21T03:45:00.378Z,15.03
2019-05-21T03:45:57.588Z,14.91
2019-05-21T03:46:57.578Z,15.03
2019-05-21T03:47:57.578Z,15.01
2019-05-21T03:48:57.568Z,15.05
2019-05-21T03:49:57.571Z,14.93
2019-05-21T03:50:57.565Z,14.95
2019-05-21T03:51:57.570Z,14.95
2019-05-21T03:52:57.565Z,15.03
2019-05-21T03:53:57.562Z,14.95
2019-05-21T03:54:57.547Z,14.94
2019-05-21T03:55:57.540Z,14.99
2019-05-21T03:56:57.551Z,14.95
2019-05-21T03:57:57.542Z,14.98
2019-05-21T03:58:57.538Z,14.94
2019-05-21T03:59:57.545Z,14.95
2019-05-21T04:00:57.553Z,14.93
2019-05-21T04:01:57.530Z,14.91
2019-05-21T04:02:57.522Z,15.03
2019-05-21T04:03:57.521Z,15.01
2019-05-21T04:04:57.510Z,14.94
2019-05-21T04:05:57.514Z,14.91
2019-05-21T04:24:09.624Z,14.90
2019-05-21T04:25:08.464Z,14.84
2019-05-21T04:27:12.435Z,14.80
2019-05-21T04:28:12.425Z,14.78
2019-05-21T04:30:16.431Z,14.84
2019-05-21T04:31:16.391Z,14.83
2019-05-21T04:33:09.293Z,14.74
2019-05-21T04:34:09.276Z,14.65
2019-05-21T04:36:13.805Z,14.78
2019-05-21T04:37:17.343Z,14.78
2019-05-21T04:38:13.752Z,14.75
2019-05-21T04:39:13.751Z,14.74
2019-05-21T04:40:13.761Z,14.80
2019-05-21T04:41:13.738Z,14.80
2019-05-21T04:42:13.733Z,14.68
2019-05-21T04:43:13.734Z,14.80
2019-05-21T04:44:13.723Z,14.62
2019-05-21T04:45:13.734Z,14.60
2019-05-21T04:46:13.719Z,14.80
2019-05-21T04:47:13.709Z,14.80
2019-05-21T04:48:13.721Z,14.81
2019-05-21T04:49:13.725Z,14.67
2019-05-21T04:50:13.701Z,14.65
2019-05-21T04:51:14.242Z,14.74
2019-05-21T04:52:13.691Z,14.74
2019-05-21T04:53:13.705Z,14.80
2019-05-21T04:54:13.694Z,14.71
2019-05-21T04:55:13.684Z,14.81
2019-05-21T04:56:13.686Z,14.80
2019-05-21T04:57:13.679Z,14.78
2019-05-21T04:58:13.669Z,14.75
2019-05-21T04:59:13.671Z,14.81
2019-05-21T05:00:13.660Z,14.80
2019-05-21T05:01:13.659Z,14.71
2019-05-21T05:02:13.659Z,14.75
2019-05-21T05:03:13.662Z,14.80
2019-05-21T05:04:13.653Z,14.83
2019-05-21T05:05:13.649Z,14.84
2019-05-21T05:06:13.641Z,14.81
2019-05-21T05:07:26.781Z,14.75
2019-05-21T05:08:13.633Z,14.74
2019-05-21T05:09:13.632Z,14.81
2019-05-21T05:10:13.630Z,14.75
2019-05-21T05:11:13.627Z,14.81
2019-05-21T05:12:13.622Z,14.75
2019-05-21T05:13:13.621Z,14.78
2019-05-21T05:14:13.608Z,14.72
2019-05-21T05:15:13.603Z,14.74
2019-05-21T05:16:13.614Z,14.64
2019-05-21T05:17:13.608Z,14.62
2019-05-21T05:18:13.592Z,14.64
2019-05-21T05:19:13.590Z,14.74
2019-05-21T05:20:13.592Z,14.71
2019-05-21T05:21:13.588Z,14.69
2019-05-21T05:22:13.582Z,14.64
2019-05-21T05:23:13.579Z,14.65
2019-05-21T05:24:13.584Z,14.69
2019-05-21T05:25:13.599Z,14.74
2019-05-21T05:26:13.572Z,14.60
2019-05-21T05:27:13.563Z,14.56
2019-05-21T05:28:13.561Z,14.65
2019-05-21T05:29:13.625Z,14.60
2019-05-21T05:30:13.557Z,14.57
2019-05-21T05:31:15.462Z,14.60
2019-05-21T05:32:13.549Z,14.47
2019-05-21T05:33:13.545Z,14.64
2019-05-21T05:34:13.537Z,14.57
2019-05-21T05:35:13.533Z,14.62
2019-05-21T05:36:13.535Z,14.46
2019-05-21T05:37:13.524Z,14.46
2019-05-21T05:38:13.521Z,14.50
2019-05-21T05:39:13.517Z,14.65
2019-05-21T05:40:13.855Z,14.50
2019-05-21T05:41:13.513Z,14.61
2019-05-21T05:42:13.511Z,14.43
2019-05-21T05:43:13.507Z,14.49
2019-05-21T05:44:13.502Z,14.47
2019-05-21T05:45:13.498Z,14.39
2019-05-21T05:46:13.506Z,14.53
2019-05-21T05:47:13.490Z,14.46
2019-05-21T05:48:13.487Z,14.50
2019-05-21T05:49:13.481Z,14.43
2019-05-21T05:50:13.484Z,14.46
2019-05-21T05:51:13.475Z,14.52
2019-05-21T05:52:13.467Z,14.49
2019-05-21T05:53:13.467Z,14.42
2019-05-21T05:54:13.474Z,14.50
2019-05-21T05:55:13.455Z,14.49
2019-05-21T05:56:13.449Z,14.50
2019-05-21T05:57:13.464Z,14.53
2019-05-21T05:58:13.450Z,14.39
2019-05-21T05:59:14.364Z,14.46
2019-05-21T06:00:13.439Z,14.31
2019-05-21T06:01:13.435Z,14.35
2019-05-21T06:02:13.433Z,14.38
2019-05-21T06:03:13.436Z,14.43
2019-05-21T06:04:13.433Z,14.42
2019-05-21T06:05:13.457Z,14.39
2019-05-21T06:06:13.423Z,14.42
2019-05-21T06:07:13.410Z,14.38
2019-05-21T06:08:13.407Z,14.35
2019-05-21T06:09:13.403Z,14.38
2019-05-21T06:10:13.399Z,14.43
2019-05-21T06:11:13.396Z,14.37
2019-05-21T06:12:13.390Z,14.35
2019-05-21T06:13:13.387Z,14.35
2019-05-21T06:14:13.392Z,14.34
2019-05-21T06:15:13.379Z,14.32
2019-05-21T06:16:13.372Z,14.20
2019-05-21T06:17:13.373Z,14.32
2019-05-21T06:18:13.417Z,14.29
2019-05-21T06:19:13.365Z,14.24
2019-05-21T06:20:13.357Z,14.35
2019-05-21T06:21:13.355Z,14.34
2019-05-21T06:22:13.352Z,14.32
2019-05-21T06:23:13.340Z,14.25
2019-05-21T06:24:13.805Z,14.31
2019-05-21T06:25:13.358Z,14.32
2019-05-21T06:26:13.328Z,14.38
2019-05-21T06:27:13.370Z,14.21
2019-05-21T06:28:13.326Z,14.27
2019-05-21T06:29:13.328Z,14.24
2019-05-21T06:30:13.314Z,14.24
2019-05-21T06:31:13.401Z,14.19
2019-05-21T06:32:13.310Z,14.16
2019-05-21T06:33:13.302Z,14.16
2019-05-21T06:34:13.298Z,14.17
2019-05-21T06:35:13.293Z,14.21
2019-05-21T06:36:13.294Z,14.20
2019-05-21T06:37:13.295Z,14.19
2019-05-21T06:38:17.801Z,14.21
2019-05-21T06:39:13.276Z,14.10
2019-05-21T06:40:13.274Z,14.17
2019-05-21T06:41:13.279Z,14.14
2019-05-21T06:42:13.266Z,14.14
2019-05-21T06:43:13.258Z,14.12
2019-05-21T06:44:13.264Z,14.17
2019-05-21T06:45:13.257Z,14.13
2019-05-21T06:46:13.247Z,14.20
2019-05-21T06:47:13.242Z,14.09
2019-05-21T06:48:13.239Z,14.16
2019-05-21T06:49:13.246Z,14.10
2019-05-21T06:50:13.239Z,14.25
2019-05-21T06:51:13.227Z,14.14
2019-05-21T06:52:13.281Z,14.14
2019-05-21T06:53:13.215Z,14.13
2019-05-21T06:54:13.218Z,14.10
2019-05-21T06:55:13.203Z,14.13
2019-05-21T06:56:13.212Z,14.13
2019-05-21T06:57:13.203Z,14.20
2019-05-21T06:58:13.207Z,14.07
2019-05-21T06:59:13.195Z,14.12
2019-05-21T07:00:13.193Z,14.09
2019-05-21T07:01:13.191Z,14.12
2019-05-21T07:02:13.184Z,14.13
2019-05-21T07:03:13.183Z,14.07
2019-05-21T07:04:13.172Z,14.12
2019-05-21T07:05:13.165Z,14.14
2019-05-21T07:06:13.167Z,14.09
2019-05-21T07:07:13.157Z,14.13
2019-05-21T07:08:13.158Z,14.17
2019-05-21T07:09:13.156Z,14.20
2019-05-21T07:10:13.144Z,14.02
2019-05-21T07:11:13.141Z,14.09
2019-05-21T07:12:13.138Z,14.04
2019-05-21T07:13:13.134Z,14.10
2019-05-21T07:14:13.162Z,14.12
2019-05-21T07:15:13.129Z,14.12
2019-05-21T07:16:13.125Z,14.20
2019-05-21T07:17:13.114Z,14.04
2019-05-21T07:18:13.113Z,14.12
2019-05-21T07:19:13.104Z,14.07
2019-05-21T07:20:13.102Z,14.25
2019-05-21T07:21:13.106Z,14.13
2019-05-21T07:22:13.536Z,14.19
2019-05-21T07:23:13.091Z,14.16
2019-05-21T07:24:13.085Z,14.21
2019-05-21T07:25:13.129Z,14.14
2019-05-21T07:26:13.079Z,14.16
2019-05-21T07:27:13.081Z,14.14
2019-05-21T07:28:13.061Z,14.12
2019-05-21T07:29:13.072Z,14.09
2019-05-21T07:30:13.067Z,14.12
2019-05-21T07:31:17.095Z,14.12
2019-05-21T07:32:13.064Z,14.07
2019-05-21T07:33:13.072Z,14.19
2019-05-21T07:34:13.048Z,14.12
2019-05-21T07:35:13.051Z,14.20
2019-05-21T07:36:13.043Z,14.07
2019-05-21T07:37:13.043Z,14.12
2019-05-21T07:38:13.029Z,14.16
2019-05-21T07:39:13.024Z,14.19
2019-05-21T07:40:13.027Z,14.13
2019-05-21T07:41:13.020Z,14.14
2019-05-21T07:42:13.022Z,14.21
2019-05-21T07:43:13.013Z,14.19
2019-05-21T07:44:13.014Z,14.12
2019-05-21T07:45:13.010Z,14.09
2019-05-21T07:46:13.006Z,14.09
2019-05-21T07:47:13.003Z,14.07
2019-05-21T07:48:13.028Z,14.25
2019-05-21T07:49:12.986Z,14.10
2019-05-21T07:50:13.043Z,14.13
2019-05-21T07:51:12.983Z,14.14
2019-05-21T07:52:12.977Z,14.16
2019-05-21T07:53:12.972Z,14.16
2019-05-21T07:54:12.965Z,14.19
2019-05-21T07:55:12.965Z,14.09
2019-05-21T07:56:12.972Z,14.12
2019-05-21T07:57:12.950Z,14.20
2019-05-21T07:58:12.955Z,14.19
2019-05-21T07:59:12.969Z,14.06
2019-05-21T08:00:12.939Z,14.12
2019-05-21T08:01:12.942Z,14.19
2019-05-21T08:02:12.936Z,14.10
2019-05-21T08:03:12.959Z,14.21
2019-05-21T08:04:12.925Z,14.24
2019-05-21T08:05:12.931Z,14.19
2019-05-21T08:06:14.971Z,14.12
2019-05-21T08:07:12.911Z,14.09
2019-05-21T08:08:12.906Z,14.16
2019-05-21T08:09:14.706Z,14.19
2019-05-21T08:10:12.907Z,14.14
2019-05-21T08:11:12.905Z,14.20
2019-05-21T08:12:36.793Z,14.19
2019-05-21T08:13:12.897Z,14.07
2019-05-21T08:14:12.884Z,14.12
2019-05-21T08:15:12.887Z,14.17
2019-05-21T08:16:12.875Z,14.20
2019-05-21T08:17:12.867Z,14.12
2019-05-21T08:18:12.881Z,14.12
2019-05-21T08:19:12.860Z,14.12
2019-05-21T08:20:12.860Z,14.06
2019-05-21T08:21:12.858Z,14.10
2019-05-21T08:22:12.854Z,14.16
2019-05-21T08:23:12.850Z,14.14
2019-05-21T08:24:12.861Z,14.17
2019-05-21T08:25:14.679Z,14.14
2019-05-21T08:26:12.838Z,14.07
2019-05-21T08:27:12.830Z,14.06
2019-05-21T08:28:12.848Z,14.07
2019-05-21T08:29:12.822Z,14.09
2019-05-21T08:30:12.831Z,14.09
2019-05-21T08:31:12.813Z,14.10
2019-05-21T08:32:12.807Z,14.10
2019-05-21T08:33:12.824Z,14.12
2019-05-21T08:34:12.811Z,14.12
2019-05-21T08:35:12.799Z,14.21
2019-05-21T08:36:12.793Z,14.16
2019-05-21T08:37:12.794Z,14.24
2019-05-21T08:38:12.795Z,14.20
2019-05-21T08:39:27.744Z,14.13
2019-05-21T08:40:12.781Z,14.24
2019-05-21T08:41:12.778Z,14.14
2019-05-21T08:42:12.772Z,14.13
2019-05-21T08:43:12.775Z,14.14
2019-05-21T08:44:12.762Z,14.12
2019-05-21T08:45:12.757Z,14.12
2019-05-21T08:46:12.758Z,14.19
2019-05-21T08:47:12.754Z,14.16
2019-05-21T08:48:12.754Z,14.20
2019-05-21T08:49:12.746Z,14.28
2019-05-21T08:50:12.742Z,14.17
2019-05-21T08:51:12.736Z,14.21
2019-05-21T08:52:12.735Z,14.24
2019-05-21T08:53:12.726Z,14.20
2019-05-21T08:54:12.776Z,14.16
2019-05-21T08:55:12.724Z,14.19
2019-05-21T08:56:12.716Z,14.21
2019-05-21T08:57:12.717Z,14.21
2019-05-21T08:58:12.722Z,14.21
2019-05-21T08:59:12.704Z,14.24
2019-05-21T09:00:12.703Z,14.21
2019-05-21T09:01:12.701Z,14.24
2019-05-21T09:02:12.694Z,14.25
2019-05-21T09:03:12.702Z,14.14
2019-05-21T09:04:12.682Z,14.25
2019-05-21T09:05:12.687Z,14.24
2019-05-21T09:06:12.679Z,14.24
2019-05-21T09:07:12.671Z,14.25
2019-05-21T09:08:12.679Z,14.25
2019-05-21T09:09:12.663Z,14.31
2019-05-21T09:10:12.658Z,14.19
2019-05-21T09:11:12.660Z,14.28
2019-05-21T09:12:12.653Z,14.31
2019-05-21T09:13:12.670Z,14.20
2019-05-21T09:14:12.643Z,14.24
2019-05-21T09:15:12.638Z,14.25
2019-05-21T09:16:12.641Z,14.20
2019-05-21T09:17:12.631Z,14.25
2019-05-21T09:18:12.626Z,14.25
2019-05-21T09:19:12.627Z,14.21
2019-05-21T09:20:12.624Z,14.21
2019-05-21T09:21:12.627Z,14.21
2019-05-21T09:22:12.611Z,14.21
2019-05-21T09:23:12.612Z,14.19
2019-05-21T09:24:12.621Z,14.28
2019-05-21T09:25:12.601Z,14.29
2019-05-21T09:26:12.600Z,14.31
2019-05-21T09:27:12.596Z,14.21
2019-05-21T09:28:12.591Z,14.32
2019-05-21T09:29:12.588Z,14.24
2019-05-21T09:30:12.587Z,14.20
2019-05-21T09:31:12.658Z,14.19
2019-05-21T09:32:12.577Z,14.24
2019-05-21T09:33:12.565Z,14.37
2019-05-21T09:34:12.576Z,14.24
2019-05-21T09:35:12.565Z,14.31
2019-05-21T09:36:12.561Z,14.35
2019-05-21T09:37:19.598Z,14.24
2019-05-21T09:38:12.549Z,14.19
2019-05-21T09:39:12.555Z,14.21
2019-05-21T09:40:12.553Z,14.35
2019-05-21T09:41:12.554Z,14.20
2019-05-21T09:42:12.546Z,14.21
2019-05-21T09:43:12.535Z,14.21
2019-05-21T09:44:12.522Z,14.24
2019-05-21T09:45:12.537Z,14.29
2019-05-21T09:46:12.524Z,14.31
2019-05-21T09:47:12.514Z,14.31
2019-05-21T09:48:12.507Z,14.27
2019-05-21T09:49:12.516Z,14.21
2019-05-21T09:50:12.519Z,14.24
2019-05-21T09:51:19.739Z,14.38
2019-05-21T09:52:12.501Z,14.27
2019-05-21T09:53:12.508Z,14.28
2019-05-21T09:54:12.492Z,14.27
2019-05-21T09:55:12.492Z,14.25
2019-05-21T09:56:12.479Z,14.17
2019-05-21T09:57:12.480Z,14.21
2019-05-21T09:58:12.473Z,14.21
2019-05-21T09:59:12.502Z,14.27
2019-05-21T10:00:12.470Z,14.14
2019-05-21T10:01:12.460Z,14.21
2019-05-21T10:02:12.535Z,14.35
2019-05-21T10:03:12.477Z,14.34
2019-05-21T10:04:12.453Z,14.38
2019-05-21T10:05:12.459Z,14.35
2019-05-21T10:06:12.469Z,14.35
2019-05-21T10:07:12.448Z,14.31
2019-05-21T10:08:12.434Z,14.34
2019-05-21T10:09:12.442Z,14.31
2019-05-21T10:10:12.475Z,14.34
2019-05-21T10:11:12.428Z,14.39
2019-05-21T10:12:12.426Z,14.38
2019-05-21T10:13:12.421Z,14.43
2019-05-21T10:14:12.419Z,14.47
2019-05-21T10:15:12.419Z,14.43
2019-05-21T10:16:12.403Z,14.38
2019-05-21T10:17:12.413Z,14.39
2019-05-21T10:18:12.407Z,14.34
2019-05-21T10:19:12.397Z,14.35
2019-05-21T10:20:12.393Z,14.32
2019-05-21T10:21:12.387Z,14.34
2019-05-21T10:22:12.439Z,14.35
2019-05-21T10:23:12.384Z,14.34
2019-05-21T10:24:12.383Z,14.35
2019-05-21T10:25:15.364Z,14.25
2019-05-21T10:26:12.366Z,14.35
2019-05-21T10:27:12.367Z,14.21
2019-05-21T10:28:12.371Z,14.32
2019-05-21T10:29:12.359Z,14.31
2019-05-21T10:30:12.384Z,14.38
2019-05-21T10:31:12.352Z,14.34
2019-05-21T10:32:12.351Z,14.39
2019-05-21T10:33:12.350Z,14.46
2019-05-21T10:34:13.511Z,14.43
2019-05-21T10:35:12.343Z,14.46
2019-05-21T10:36:12.339Z,14.44
2019-05-21T10:37:12.335Z,14.47
2019-05-21T10:38:12.338Z,14.38
2019-05-21T10:39:12.329Z,14.43
2019-05-21T10:40:12.318Z,14.47
2019-05-21T10:41:12.322Z,14.49
2019-05-21T10:42:12.323Z,14.38
2019-05-21T10:43:12.330Z,14.43
2019-05-21T10:44:12.311Z,14.53
2019-05-21T10:45:12.301Z,14.43
2019-05-21T10:46:12.298Z,14.46
2019-05-21T10:47:15.943Z,14.37
2019-05-21T10:48:12.364Z,14.35
2019-05-21T10:49:12.344Z,14.34
2019-05-21T10:50:12.286Z,14.47
2019-05-21T10:51:12.531Z,14.38
2019-05-21T10:52:12.285Z,14.42
2019-05-21T10:53:12.279Z,14.50
2019-05-21T10:54:12.275Z,14.37
2019-05-21T10:55:15.822Z,14.49
2019-05-21T10:56:12.263Z,14.44
2019-05-21T10:57:12.259Z,14.47
2019-05-21T10:58:12.268Z,14.49
2019-05-21T10:59:12.257Z,14.44
2019-05-21T11:00:12.260Z,14.49
2019-05-21T11:01:12.254Z,14.53
2019-05-21T11:02:12.241Z,14.54
2019-05-21T11:03:12.278Z,14.39
2019-05-21T11:04:12.250Z,14.47
2019-05-21T11:05:12.232Z,14.46
2019-05-21T11:06:12.229Z,14.43
2019-05-21T11:07:12.225Z,14.43
2019-05-21T11:08:23.691Z,14.50
2019-05-21T11:09:12.219Z,14.44
2019-05-21T11:10:12.321Z,14.47
2019-05-21T11:11:12.230Z,14.44
2019-05-21T11:12:12.224Z,14.60
2019-05-21T11:13:12.238Z,14.52
2019-05-21T11:14:12.199Z,14.53
2019-05-21T11:15:12.205Z,14.47
2019-05-21T11:16:12.213Z,14.52
2019-05-21T11:17:12.195Z,14.65
2019-05-21T11:18:12.354Z,14.65
2019-05-21T11:19:12.193Z,14.60
2019-05-21T11:20:12.185Z,14.64
2019-05-21T11:21:12.178Z,14.57
2019-05-21T11:22:12.182Z,14.60
2019-05-21T11:23:12.178Z,14.62
2019-05-21T11:24:12.523Z,14.60
2019-05-21T11:25:12.177Z,14.64
2019-05-21T11:26:12.194Z,14.67
2019-05-21T11:27:12.166Z,14.71
2019-05-21T11:28:12.163Z,14.72
2019-05-21T11:29:12.160Z,14.83
2019-05-21T11:30:12.151Z,14.83
2019-05-21T11:31:12.161Z,14.78
2019-05-21T11:32:12.154Z,14.71
2019-05-21T11:33:12.171Z,14.75
2019-05-21T11:34:12.144Z,14.78
2019-05-21T11:35:12.147Z,14.69
2019-05-21T11:36:12.148Z,14.75
2019-05-21T11:37:12.138Z,14.83
2019-05-21T11:38:12.128Z,14.84
2019-05-21T11:39:12.166Z,14.78
2019-05-21T11:40:12.124Z,14.83
2019-05-21T11:41:12.201Z,14.72
2019-05-21T11:42:12.120Z,14.60
2019-05-21T11:43:12.110Z,14.67
2019-05-21T11:44:12.148Z,14.61
2019-05-21T11:45:12.104Z,14.61
2019-05-21T11:46:12.105Z,14.64
2019-05-21T11:47:12.096Z,14.69
2019-05-21T11:48:12.094Z,14.71
2019-05-21T11:49:12.105Z,14.60
2019-05-21T11:50:12.098Z,14.71
2019-05-21T11:51:12.929Z,14.67
2019-05-21T11:52:12.084Z,14.57
2019-05-21T11:53:12.090Z,14.54
2019-05-21T11:54:12.127Z,14.61
2019-05-21T11:55:12.078Z,14.71
2019-05-21T11:56:12.075Z,14.68
2019-05-21T11:57:12.070Z,14.81
2019-05-21T11:58:12.063Z,14.72
2019-05-21T11:59:12.077Z,14.75
2019-05-21T12:00:12.090Z,14.78
2019-05-21T12:01:12.306Z,14.69
2019-05-21T12:02:12.053Z,14.60
2019-05-21T12:03:12.048Z,14.62
2019-05-21T12:04:12.056Z,14.61
2019-05-21T12:05:12.050Z,14.71
2019-05-21T12:06:12.039Z,14.61
2019-05-21T12:07:12.052Z,14.64
2019-05-21T12:08:12.045Z,14.74
2019-05-21T12:09:12.037Z,14.71
2019-05-21T12:10:12.039Z,14.68
2019-05-21T12:11:12.033Z,14.61
2019-05-21T12:12:12.032Z,14.75
2019-05-21T12:13:12.051Z,14.81
2019-05-21T12:14:12.024Z,14.86
2019-05-21T12:15:12.013Z,14.71
2019-05-21T12:16:12.019Z,14.78
2019-05-21T12:17:12.012Z,14.74
2019-05-21T12:18:12.029Z,14.60
2019-05-21T12:19:12.012Z,14.72
2019-05-21T12:20:12.010Z,14.71
2019-05-21T12:21:12.018Z,14.84
2019-05-21T12:22:11.998Z,14.78
2019-05-21T12:23:12.008Z,14.83
2019-05-21T12:24:11.992Z,14.83
2019-05-21T12:25:12.002Z,14.72
2019-05-21T12:26:11.991Z,14.78
2019-05-21T12:27:11.980Z,14.86
2019-05-21T12:28:11.991Z,14.81
2019-05-21T12:29:11.985Z,14.80
2019-05-21T12:30:12.005Z,14.74
2019-05-21T12:31:11.978Z,14.80
2019-05-21T12:32:11.980Z,14.72
2019-05-21T12:33:11.984Z,14.78
2019-05-21T12:34:11.968Z,14.80
2019-05-21T12:35:11.994Z,14.83
2019-05-21T12:36:11.954Z,14.72
2019-05-21T12:37:11.957Z,14.71
2019-05-21T12:38:12.015Z,14.87
2019-05-21T12:39:14.612Z,14.72
2019-05-21T12:40:11.960Z,14.78
2019-05-21T12:41:13.846Z,14.84
2019-05-21T12:42:11.936Z,14.87
2019-05-21T12:43:11.933Z,14.87
2019-05-21T12:44:11.931Z,14.88
2019-05-21T12:45:11.936Z,14.83
2019-05-21T12:46:11.921Z,14.84
2019-05-21T12:47:12.048Z,14.80
2019-05-21T12:48:11.922Z,14.90
2019-05-21T12:49:11.917Z,14.88
2019-05-21T12:50:11.905Z,14.91
2019-05-21T12:51:12.016Z,14.88
2019-05-21T12:52:11.923Z,14.88
2019-05-21T12:53:12.007Z,14.94
2019-05-21T12:54:11.939Z,14.98
2019-05-21T12:55:11.927Z,14.90
2019-05-21T12:56:11.930Z,14.90
2019-05-21T12:57:11.893Z,14.95
2019-05-21T12:58:11.883Z,14.90
2019-05-21T12:59:11.898Z,14.93
2019-05-21T13:00:11.887Z,14.90
2019-05-21T13:01:11.927Z,14.91
2019-05-21T13:02:11.911Z,14.88
2019-05-21T13:03:11.868Z,14.91
2019-05-21T13:04:11.889Z,14.99
2019-05-21T13:05:11.921Z,14.90
2019-05-21T13:06:11.883Z,14.99
2019-05-21T13:07:11.878Z,15.01
2019-05-21T13:08:11.906Z,14.94
2019-05-21T13:09:11.878Z,14.91
2019-05-21T13:10:11.877Z,14.94
2019-05-21T13:11:11.878Z,14.98
2019-05-21T13:12:11.849Z,14.98
2019-05-21T13:13:11.843Z,14.99
2019-05-21T13:14:17.695Z,14.94